Howardville, New York
Current Conditions -  °F | °C
As of 12:44 PM on Thursday 23 Oct 2014 (Local Time) from KFZY Reporting Station
Broken Clouds Broken Clouds  
Wind Chill: 53°   Ceiling: 2700
Heat Index: 53°   Visibility: 10mi
Dew Point: 40°   Wind: 15mph
Humidity: 61%   Direction: 340°NNW
Pressure: 29.98"   Gusts: 28mph
Location:  43.4945°N, 75.9612°W
Report Text: KFZY 231644Z AUTO 34013G24KT 10SM BKN027 12/04 A2998 RMK AO2 PK WND 02027/1617 T01170044
Loading
Personal Weather Stations






























Interactive Weather Map
Tropical Storm Tracking
New forecast layout! Learn more

10-Day Weather Forecast

Advertisements
Track Severe Weather on mobile